createdAt,value
2017-05-18T02:51:51.453Z,0
2017-05-18T02:52:31.879Z,0
2017-05-18T02:53:12.287Z,0
2017-05-18T02:53:52.736Z,0
2017-05-18T02:54:33.114Z,0
2017-05-18T02:55:13.547Z,0
2017-05-18T02:55:53.914Z,0
2017-05-18T02:56:34.379Z,0
2017-05-18T02:57:14.817Z,0
2017-05-18T02:57:55.240Z,0
2017-05-18T02:58:35.680Z,0
2017-05-18T02:59:16.087Z,0
2017-05-18T02:59:56.501Z,0
2017-05-18T03:00:36.931Z,0
2017-05-18T03:01:17.288Z,0
2017-05-18T03:01:57.740Z,0
2017-05-18T03:02:38.136Z,0
2017-05-18T03:03:18.551Z,0
2017-05-18T03:03:58.944Z,0
2017-05-18T03:04:39.386Z,0
2017-05-18T03:05:19.796Z,0
2017-05-18T03:06:00.227Z,0
2017-05-18T03:06:40.644Z,0
2017-05-18T03:07:21.064Z,0
2017-05-18T03:08:01.470Z,0
2017-05-18T03:08:41.914Z,0
2017-05-18T03:09:22.462Z,0
2017-05-18T03:10:02.889Z,0
2017-05-18T03:10:43.282Z,0
2017-05-18T03:11:23.726Z,0
2017-05-18T03:12:04.155Z,0
2017-05-18T03:12:44.614Z,0
2017-05-18T03:13:25.071Z,0
2017-05-18T03:14:05.477Z,0
2017-05-18T03:14:45.932Z,0
2017-05-18T03:17:13.924Z,0
2017-05-18T03:17:54.343Z,0
2017-05-18T03:18:34.740Z,0
2017-05-18T03:19:15.167Z,0
2017-05-18T03:19:56.345Z,0
2017-05-18T03:28:54.307Z,5
2017-05-18T03:29:34.742Z,5
2017-05-18T03:30:15.148Z,5
2017-05-18T03:30:55.555Z,5
2017-05-18T03:31:35.963Z,5
2017-05-18T03:32:16.430Z,5
2017-05-18T03:32:56.828Z,5
2017-05-18T03:33:37.246Z,5
2017-05-18T03:34:17.662Z,5
2017-05-18T03:34:58.039Z,10
2017-05-18T03:35:38.495Z,10
2017-05-18T03:36:18.924Z,10
2017-05-18T03:36:59.420Z,10
2017-05-18T03:37:39.797Z,10
2017-05-18T03:38:20.261Z,10
2017-05-18T03:39:00.715Z,10
2017-05-18T03:39:41.096Z,10
2017-05-18T03:40:21.515Z,15
2017-05-18T03:42:39.461Z,15
2017-05-18T03:43:19.911Z,15
2017-05-18T03:44:00.333Z,20
2017-05-18T03:44:40.745Z,20
2017-05-18T03:45:21.154Z,20
2017-05-18T03:46:01.575Z,20
2017-05-18T03:46:41.979Z,20
2017-05-18T03:47:22.420Z,20
2017-05-18T03:48:02.822Z,25
2017-05-18T03:48:43.238Z,25
2017-05-18T03:49:23.689Z,25
2017-05-18T03:50:04.096Z,25
2017-05-18T03:50:44.515Z,25
2017-05-18T03:51:24.939Z,25
2017-05-18T03:52:05.355Z,30
2017-05-18T03:52:45.767Z,30
2017-05-18T03:53:26.159Z,30
2017-05-18T03:54:06.569Z,30
2017-05-18T03:54:46.960Z,30
2017-05-18T03:55:27.378Z,35
2017-05-18T03:56:08.215Z,35
2017-05-18T03:56:48.610Z,35
2017-05-18T03:57:29.032Z,35
2017-05-18T03:58:09.401Z,35
2017-05-18T03:58:49.843Z,35
2017-05-18T03:59:30.252Z,40
2017-05-18T04:00:10.707Z,40
2017-05-18T04:00:51.156Z,40
2017-05-18T04:01:31.588Z,40
2017-05-18T04:02:12.010Z,40
2017-05-18T04:02:52.411Z,40
2017-05-18T04:03:32.829Z,45
2017-05-18T04:04:13.251Z,45
2017-05-18T04:04:53.730Z,45
2017-05-18T04:05:34.131Z,45
2017-05-18T04:06:14.580Z,45
2017-05-18T04:06:54.990Z,45
2017-05-18T04:07:35.414Z,45
2017-05-18T04:08:15.847Z,45
2017-05-18T04:08:56.235Z,50
2017-05-18T04:09:36.656Z,50
2017-05-18T04:10:17.062Z,50
2017-05-18T04:10:57.484Z,50
2017-05-18T04:11:37.939Z,55
2017-05-18T04:12:18.394Z,55
2017-05-18T04:14:46.558Z,60
2017-05-18T04:15:26.984Z,60
2017-05-18T04:16:07.377Z,65
2017-05-18T04:16:47.881Z,65
2017-05-18T04:17:28.360Z,65
2017-05-18T04:18:09.685Z,65
2017-05-18T04:18:50.764Z,70
2017-05-18T04:19:31.832Z,70
2017-05-18T04:20:13.938Z,70
2017-05-18T04:20:54.430Z,75
2017-05-18T04:21:35.458Z,75
2017-05-18T04:22:15.881Z,75
2017-05-18T04:22:56.280Z,75
2017-05-18T04:23:38.283Z,80
2017-05-18T04:24:18.748Z,80
2017-05-18T04:25:01.080Z,80
2017-05-18T04:25:42.995Z,80
2017-05-18T04:26:24.030Z,85
2017-05-18T04:27:06.347Z,85
2017-05-18T04:27:46.793Z,90
2017-05-18T04:28:27.214Z,90
2017-05-18T04:29:10.351Z,90
2017-05-18T04:29:51.361Z,95
2017-05-18T04:30:31.772Z,95
2017-05-18T04:31:12.259Z,100
2017-05-18T04:31:52.718Z,100
2017-05-18T04:32:35.722Z,100
2017-05-18T04:33:19.669Z,105
2017-05-18T04:34:01.930Z,105
2017-05-18T04:34:42.373Z,110
2017-05-18T04:35:22.861Z,110
2017-05-18T04:36:04.286Z,115
2017-05-18T04:36:44.787Z,115
2017-05-18T04:37:25.301Z,115
2017-05-18T04:38:05.711Z,115
2017-05-18T04:38:46.144Z,120
2017-05-18T04:39:26.555Z,125
2017-05-18T04:40:06.995Z,125
2017-05-18T04:40:47.423Z,125
2017-05-18T04:41:27.856Z,130
2017-05-18T04:42:08.279Z,130
2017-05-18T04:42:48.686Z,125
2017-05-18T04:43:29.116Z,130
2017-05-18T04:44:09.538Z,130
2017-05-18T04:44:49.946Z,135
2017-05-18T04:45:30.360Z,135
2017-05-18T04:46:10.757Z,135
2017-05-18T04:46:51.177Z,140
2017-05-18T04:47:31.581Z,140
2017-05-18T04:48:12.005Z,140
2017-05-18T04:48:53.129Z,145
2017-05-18T04:49:33.517Z,145
2017-05-18T04:50:13.931Z,150
2017-05-18T04:50:54.321Z,150
2017-05-18T04:51:34.752Z,150
2017-05-18T04:52:15.754Z,155
2017-05-18T04:52:56.951Z,160
2017-05-18T04:55:10.438Z,175
2017-05-18T04:55:51.486Z,175
2017-05-18T04:56:32.129Z,185
2017-05-18T04:57:14.075Z,190
2017-05-18T04:57:54.482Z,200
2017-05-18T04:58:34.916Z,200
2017-05-18T04:59:15.369Z,205
2017-05-18T04:59:55.759Z,205
2017-05-18T05:02:09.876Z,210
2017-05-18T05:02:50.312Z,215
2017-05-18T05:03:30.706Z,215
2017-05-18T05:04:11.136Z,215
2017-05-18T05:04:51.569Z,215
2017-05-18T05:05:31.966Z,215
2017-05-18T05:06:12.345Z,215
2017-05-18T05:06:53.335Z,215
2017-05-18T05:07:33.630Z,215
2017-05-18T05:08:14.076Z,215
2017-05-18T05:08:54.502Z,220
2017-05-18T05:09:34.908Z,220
2017-05-18T05:10:15.391Z,220
2017-05-18T05:10:56.141Z,220
2017-05-18T05:11:36.495Z,220
2017-05-18T05:12:16.885Z,225
2017-05-18T05:12:57.317Z,225
2017-05-18T05:15:15.183Z,235
2017-05-18T05:15:55.620Z,235
2017-05-18T05:16:36.070Z,240
2017-05-18T05:17:16.500Z,240
2017-05-18T05:17:56.950Z,240
2017-05-18T05:18:37.349Z,245
2017-05-18T05:19:17.760Z,245
2017-05-18T05:19:58.164Z,250
2017-05-18T05:20:38.590Z,250
2017-05-18T05:21:19.010Z,255
2017-05-18T05:21:59.531Z,255
2017-05-18T05:22:39.899Z,255
2017-05-18T05:23:20.310Z,260
2017-05-18T05:24:00.787Z,260
2017-05-18T05:24:41.179Z,265
2017-05-18T05:25:21.610Z,265
2017-05-18T05:26:02.022Z,265
2017-05-18T05:26:42.472Z,270
2017-05-18T05:27:22.844Z,270
2017-05-18T05:28:03.327Z,270
2017-05-18T05:30:36.473Z,275
2017-05-18T05:31:16.900Z,280
2017-05-18T05:31:57.347Z,280
2017-05-18T05:32:37.737Z,280
2017-05-18T05:33:18.191Z,285
2017-05-18T05:33:58.602Z,280
2017-05-18T05:34:39.057Z,275
2017-05-18T05:35:19.523Z,290
2017-05-18T05:35:59.939Z,290
2017-05-18T05:36:40.408Z,290
2017-05-18T05:37:20.835Z,295
2017-05-18T05:38:01.331Z,295
2017-05-18T05:38:41.733Z,295
2017-05-18T05:39:22.176Z,300
2017-05-18T05:40:02.607Z,300
2017-05-18T05:42:40.884Z,300
2017-05-18T05:43:21.394Z,245
2017-05-18T05:44:01.835Z,265
2017-05-18T05:44:42.297Z,295
2017-05-18T05:45:22.672Z,300
2017-05-18T05:46:03.105Z,305
2017-05-18T05:48:41.510Z,220
2017-05-18T05:49:21.959Z,220
2017-05-18T05:50:02.406Z,235
2017-05-18T05:50:42.864Z,250
2017-05-18T05:51:23.325Z,315
2017-05-18T05:52:03.751Z,310
2017-05-18T05:52:44.206Z,315
2017-05-18T05:53:24.665Z,315
2017-05-18T05:54:05.038Z,315
2017-05-18T05:54:45.463Z,315
2017-05-18T05:55:25.921Z,325
2017-05-18T05:56:06.342Z,330
2017-05-18T05:56:46.749Z,340
2017-05-18T05:57:27.157Z,340
2017-05-18T05:58:07.597Z,340
2017-05-18T05:58:48.021Z,320
2017-05-18T05:59:28.452Z,350
2017-05-18T06:00:08.837Z,355
2017-05-18T06:00:49.266Z,335
2017-05-18T06:01:29.691Z,360
2017-05-18T06:02:10.077Z,365
2017-05-18T06:02:50.485Z,365
2017-05-18T06:03:30.852Z,370
2017-05-18T06:04:11.324Z,375
2017-05-18T06:04:51.762Z,345
2017-05-18T06:05:32.189Z,345
2017-05-18T06:06:12.597Z,355
2017-05-18T06:08:41.239Z,355
2017-05-18T06:09:21.663Z,355
2017-05-18T06:10:02.103Z,385
2017-05-18T06:10:42.491Z,400
2017-05-18T06:11:23.520Z,405
2017-05-18T06:12:03.928Z,400
2017-05-18T06:12:45.012Z,400
2017-05-18T06:13:25.402Z,400
2017-05-18T06:14:05.832Z,400
2017-05-18T06:14:46.224Z,400
2017-05-18T06:15:27.495Z,400
2017-05-18T06:16:07.928Z,400
2017-05-18T06:16:48.343Z,395
2017-05-18T06:17:28.795Z,390
2017-05-18T06:18:09.201Z,385
2017-05-18T06:18:51.434Z,325
2017-05-18T06:19:32.494Z,385
2017-05-18T06:20:13.947Z,385
2017-05-18T06:20:54.387Z,365
2017-05-18T06:23:28.335Z,365
2017-05-18T06:24:08.710Z,390
2017-05-18T06:24:49.142Z,385
2017-05-18T06:25:29.555Z,395
2017-05-18T06:26:09.993Z,405
2017-05-18T06:26:50.389Z,390
2017-05-18T06:27:30.857Z,410
2017-05-18T06:28:11.219Z,420
2017-05-18T06:28:51.675Z,425
2017-05-18T06:29:32.055Z,430
2017-05-18T06:30:12.510Z,430
2017-05-18T06:30:52.964Z,435
2017-05-18T06:33:21.537Z,435
2017-05-18T06:34:01.984Z,435
2017-05-18T06:34:42.360Z,440
2017-05-18T06:37:00.236Z,435
2017-05-18T06:37:40.646Z,440
2017-05-18T06:38:21.078Z,445
2017-05-18T06:39:01.483Z,450
2017-05-18T06:39:41.925Z,450
2017-05-18T06:40:22.380Z,455
2017-05-18T06:41:02.755Z,465
2017-05-18T06:41:43.197Z,460
2017-05-18T06:42:23.621Z,465
2017-05-18T06:43:04.040Z,470
2017-05-18T06:43:44.457Z,475
2017-05-18T06:44:24.897Z,480
2017-05-18T06:45:05.319Z,480
2017-05-18T06:45:45.743Z,480
2017-05-18T06:46:26.975Z,480
2017-05-18T06:47:07.347Z,485
2017-05-18T06:47:47.817Z,445
2017-05-18T06:48:28.259Z,460
2017-05-18T06:49:08.696Z,485
2017-05-18T06:49:49.164Z,495
2017-05-18T06:50:29.570Z,495
2017-05-18T06:51:09.969Z,490
2017-05-18T06:51:50.961Z,485
2017-05-18T06:52:33.124Z,495
2017-05-18T06:53:14.297Z,515
2017-05-18T06:53:54.720Z,525
2017-05-18T06:54:35.131Z,525
2017-05-18T06:55:15.559Z,535
2017-05-18T06:55:55.925Z,540
2017-05-18T06:56:36.423Z,545
2017-05-18T06:57:18.639Z,550
2017-05-18T06:57:58.996Z,560
2017-05-18T07:00:18.620Z,595
2017-05-18T07:00:59.050Z,625
2017-05-18T07:01:39.470Z,640
2017-05-18T07:02:19.876Z,655
2017-05-18T07:03:01.339Z,680
2017-05-18T07:03:41.704Z,685
2017-05-18T07:04:22.138Z,675
2017-05-18T07:05:02.560Z,685
2017-05-18T07:05:43.090Z,680
2017-05-18T07:06:23.575Z,690
2017-05-18T07:07:03.987Z,720
2017-05-18T07:07:44.408Z,740
2017-05-18T07:08:24.967Z,765
2017-05-18T07:09:06.316Z,800
2017-05-18T07:09:46.754Z,835
2017-05-18T07:10:27.290Z,855
2017-05-18T07:11:08.387Z,870
2017-05-18T07:13:47.541Z,1045
2017-05-18T07:14:27.968Z,1060
2017-05-18T07:17:19.744Z,1040
2017-05-18T07:18:00.208Z,1055
2017-05-18T07:18:40.590Z,1080
2017-05-18T07:19:21.025Z,1025
2017-05-18T07:20:01.489Z,1115
2017-05-18T07:20:42.037Z,1205
2017-05-18T07:21:22.419Z,1225
2017-05-18T07:22:03.431Z,1215
2017-05-18T07:22:44.498Z,1245
2017-05-18T07:23:25.577Z,1300
2017-05-18T07:24:06.025Z,1385
2017-05-18T07:24:46.437Z,1580
2017-05-18T07:25:27.413Z,1835
2017-05-18T07:26:08.837Z,2160
2017-05-18T07:26:49.944Z,2265
2017-05-18T07:27:30.368Z,2195
2017-05-18T07:28:10.795Z,2255
2017-05-18T07:28:51.200Z,2245
2017-05-18T07:29:31.912Z,2185
2017-05-18T07:30:12.252Z,2200
2017-05-18T07:32:40.462Z,2355
2017-05-18T07:33:21.765Z,2300
2017-05-18T07:34:02.180Z,2395
2017-05-18T07:34:42.590Z,2535
2017-05-18T07:35:23.075Z,2505
2017-05-18T07:36:03.520Z,2675
2017-05-18T07:36:43.933Z,2695
2017-05-18T07:37:24.394Z,2755
2017-05-18T07:38:04.892Z,2795
2017-05-18T07:38:45.291Z,3000
2017-05-18T07:41:04.291Z,2865
2017-05-18T07:41:44.735Z,2955
2017-05-18T07:42:25.182Z,2940
2017-05-18T07:43:05.622Z,2805
2017-05-18T07:43:46.046Z,2840
2017-05-18T07:44:26.466Z,2860
2017-05-18T07:45:06.935Z,2965
2017-05-18T07:45:47.371Z,2850
2017-05-18T07:48:05.439Z,2875
2017-05-18T07:48:45.892Z,2930
2017-05-18T07:49:26.342Z,2905
2017-05-18T07:50:06.933Z,2985
2017-05-18T07:50:47.343Z,3040
2017-05-18T07:51:27.761Z,3070
2017-05-18T07:52:08.207Z,3220
2017-05-18T07:52:49.519Z,3335
2017-05-18T07:53:32.592Z,3475
2017-05-18T07:54:13.001Z,3350
2017-05-18T07:54:54.812Z,3410
2017-05-18T07:55:35.704Z,3490
2017-05-18T07:59:25.299Z,3090
2017-05-18T08:01:39.213Z,3225
2017-05-18T08:02:19.675Z,3555
2017-05-18T08:03:00.084Z,3440
2017-05-18T08:03:41.170Z,3310
2017-05-18T08:06:10.126Z,2875
2017-05-18T08:06:52.356Z,3565
2017-05-18T08:07:32.785Z,3525
2017-05-18T08:08:13.221Z,3545
2017-05-18T08:08:53.922Z,3680
2017-05-18T08:09:34.327Z,3130
2017-05-18T08:10:15.409Z,3390
2017-05-18T08:10:57.792Z,2990
2017-05-18T08:11:39.225Z,2920
2017-05-18T08:14:15.257Z,3660
2017-05-18T08:16:52.220Z,2590
2017-05-18T08:17:33.435Z,2210
2017-05-18T08:18:14.219Z,1965
2017-05-18T08:18:55.276Z,2075
2017-05-18T08:19:35.726Z,1790
2017-05-18T08:20:16.183Z,1485
2017-05-18T08:20:57.588Z,1440
2017-05-18T08:21:38.283Z,1765
2017-05-18T08:22:18.896Z,1765
2017-05-18T08:23:00.474Z,3115
2017-05-18T08:23:40.962Z,2010
2017-05-18T08:24:21.410Z,3070
2017-05-18T08:26:53.930Z,4055
2017-05-18T08:27:34.353Z,4195
2017-05-18T08:28:15.317Z,1910
2017-05-18T08:28:55.781Z,3495
2017-05-18T08:29:36.755Z,2800
2017-05-18T08:30:17.186Z,1855
2017-05-18T08:30:57.558Z,1795
2017-05-18T08:31:38.008Z,1855
2017-05-18T08:32:19.002Z,2025
2017-05-18T08:32:59.416Z,2015
2017-05-18T08:33:40.466Z,3895
2017-05-18T08:34:20.955Z,2265
2017-05-18T08:35:01.392Z,2015
2017-05-18T08:35:41.823Z,1855
2017-05-18T08:36:22.264Z,1755
2017-05-18T08:37:02.672Z,1700
2017-05-18T08:37:43.103Z,1685
2017-05-18T08:38:23.573Z,1650
2017-05-18T08:39:03.996Z,1575
2017-05-18T08:39:44.469Z,1540
2017-05-18T08:40:24.847Z,1550
2017-05-18T08:41:05.324Z,1490
2017-05-18T08:41:45.777Z,1430
2017-05-18T08:42:26.180Z,1405
2017-05-18T08:43:06.595Z,1395
2017-05-18T08:43:47.012Z,1390
2017-05-18T08:44:27.453Z,1375
2017-05-18T08:45:07.860Z,1425
2017-05-18T08:45:48.338Z,1490
2017-05-18T08:46:28.740Z,1505
2017-05-18T08:48:41.767Z,1750
2017-05-18T08:49:22.226Z,2120
2017-05-18T08:50:02.623Z,1660
2017-05-18T08:50:43.066Z,1650
2017-05-18T08:51:24.227Z,1610
2017-05-18T08:52:06.203Z,1550
2017-05-18T08:52:46.612Z,1805
2017-05-18T08:53:27.052Z,1850
2017-05-18T08:54:07.491Z,1670
2017-05-18T08:54:47.864Z,1610
2017-05-18T08:57:20.940Z,1195
2017-05-18T08:58:01.364Z,1155
2017-05-18T08:58:41.807Z,1140
2017-05-18T08:59:22.909Z,1140
2017-05-18T09:00:03.341Z,1155
2017-05-18T09:00:43.795Z,1195
2017-05-18T09:01:24.236Z,1270
2017-05-18T09:02:04.673Z,1380
2017-05-18T09:04:34.699Z,1650
2017-05-18T09:05:16.000Z,1625
2017-05-18T09:05:56.436Z,1615
2017-05-18T09:06:36.861Z,1565
2017-05-18T09:07:17.311Z,1510
2017-05-18T09:07:57.727Z,1410
2017-05-18T09:10:35.991Z,1515
2017-05-18T09:11:16.425Z,1565
2017-05-18T09:11:56.869Z,1620
2017-05-18T09:12:37.321Z,1515
2017-05-18T09:13:17.776Z,1535
2017-05-18T09:13:58.234Z,1895
2017-05-18T09:14:38.686Z,2085
2017-05-18T09:15:19.096Z,2945
2017-05-18T09:15:59.506Z,3160
2017-05-18T09:16:39.929Z,3010
2017-05-18T09:17:20.386Z,3210
2017-05-18T11:58:54.277Z,515
2017-05-18T11:59:34.727Z,475
2017-05-18T12:00:15.165Z,450
2017-05-18T12:00:55.659Z,410
2017-05-18T12:01:36.136Z,365
2017-05-18T12:02:16.531Z,330
2017-05-18T12:02:56.975Z,310
2017-05-18T12:03:37.400Z,295
2017-05-18T12:04:17.843Z,285
2017-05-18T12:04:58.216Z,270
2017-05-18T12:05:38.744Z,255
2017-05-18T12:06:19.150Z,245
2017-05-18T12:08:52.387Z,230
2017-05-18T12:09:32.812Z,245
2017-05-18T12:10:13.211Z,260
2017-05-18T12:10:53.660Z,280
2017-05-18T12:11:34.101Z,300
2017-05-18T12:12:14.495Z,320
2017-05-18T12:12:55.228Z,335
2017-05-18T12:13:35.686Z,345
2017-05-18T12:14:16.109Z,365
2017-05-18T12:14:56.509Z,380
2017-05-18T12:15:37.818Z,380
2017-05-18T12:16:18.198Z,380
2017-05-18T12:16:58.721Z,380
2017-05-18T12:17:39.083Z,390
2017-05-18T12:18:19.529Z,405
2017-05-18T12:19:00.515Z,410
2017-05-18T12:19:40.967Z,425
2017-05-18T12:20:21.344Z,440
2017-05-18T12:21:01.769Z,470
2017-05-18T12:21:42.172Z,505
2017-05-18T12:22:22.575Z,540
2017-05-18T12:23:02.967Z,595
2017-05-18T12:23:43.456Z,650
2017-05-18T12:24:23.882Z,710
2017-05-18T12:25:04.317Z,775
2017-05-18T12:25:44.743Z,795
2017-05-18T12:26:25.134Z,785
2017-05-18T12:27:05.565Z,775
2017-05-18T12:27:45.974Z,770
2017-05-18T12:28:26.397Z,775
2017-05-18T12:29:06.767Z,780
2017-05-18T12:29:47.195Z,815
2017-05-18T12:30:27.640Z,855
2017-05-18T12:31:08.042Z,895
2017-05-18T12:31:48.449Z,925
2017-05-18T12:32:28.854Z,960
2017-05-18T12:33:09.291Z,995
2017-05-18T12:33:49.713Z,1065
2017-05-18T12:34:30.189Z,1160
2017-05-18T12:35:10.612Z,1240
2017-05-18T12:35:51.089Z,1315
2017-05-18T12:36:31.521Z,1320
2017-05-18T12:37:11.961Z,1275
2017-05-18T12:37:52.427Z,1235
2017-05-18T12:38:32.815Z,1615
2017-05-18T12:39:13.278Z,1100
2017-05-18T12:39:53.696Z,1045
2017-05-18T12:40:34.309Z,985
2017-05-18T12:41:14.734Z,950
2017-05-18T12:41:55.208Z,965
2017-05-18T12:42:35.621Z,1000
2017-05-18T12:43:16.021Z,1040
2017-05-18T12:43:56.452Z,1055
2017-05-18T12:44:36.928Z,1085
2017-05-18T12:45:17.358Z,1130
2017-05-18T12:45:57.759Z,1120
2017-05-18T12:46:38.202Z,1120
2017-05-18T12:47:18.588Z,1075
2017-05-18T12:47:59.006Z,1045
2017-05-18T12:48:39.441Z,980
2017-05-18T12:49:19.883Z,945
2017-05-18T12:50:00.263Z,890
2017-05-18T12:50:40.702Z,855
2017-05-18T12:51:21.174Z,840
2017-05-18T12:52:01.605Z,860
2017-05-18T12:52:42.041Z,890
2017-05-18T12:53:22.440Z,920
2017-05-18T12:54:02.872Z,965
2017-05-18T12:54:43.291Z,990
2017-05-18T12:55:23.699Z,1035
2017-05-18T12:56:04.145Z,1085
2017-05-18T12:56:44.549Z,1115
2017-05-18T12:57:24.955Z,1155
2017-05-18T12:58:05.413Z,1165
2017-05-18T12:58:45.846Z,1210
2017-05-18T12:59:26.306Z,1365
2017-05-18T13:00:06.698Z,1340
2017-05-18T13:02:34.901Z,1400
2017-05-18T13:03:15.294Z,1420
2017-05-18T13:03:55.740Z,1435
2017-05-18T13:04:36.163Z,2180
2017-05-18T13:05:16.598Z,3180
2017-05-18T13:05:57.014Z,2375
2017-05-18T13:06:37.422Z,2335
2017-05-18T13:07:17.900Z,2215
2017-05-18T13:07:58.321Z,2110
2017-05-18T13:08:38.774Z,3440
2017-05-18T13:09:19.228Z,2585
2017-05-18T13:09:59.642Z,1925
2017-05-18T13:10:40.097Z,1915
2017-05-18T13:11:20.487Z,2030
2017-05-18T13:12:00.925Z,1795
2017-05-18T13:12:41.329Z,1780
2017-05-18T13:13:21.740Z,1750
2017-05-18T13:14:02.157Z,1580
2017-05-18T13:14:42.601Z,1495
2017-05-18T13:15:23.065Z,1410
2017-05-18T13:16:03.503Z,1410
2017-05-18T13:16:43.902Z,1480
2017-05-18T13:17:24.386Z,1505
2017-05-18T13:18:04.819Z,1430
2017-05-18T13:18:45.253Z,1405
2017-05-18T13:19:25.655Z,1330
2017-05-18T13:20:06.070Z,1265
2017-05-18T13:20:46.562Z,1190
2017-05-18T13:21:26.965Z,1100
2017-05-18T13:22:07.388Z,1040
2017-05-18T13:22:47.786Z,1000
2017-05-18T13:25:21.028Z,980
2017-05-18T13:26:01.478Z,985
2017-05-18T13:26:41.948Z,1005
2017-05-18T13:27:22.316Z,1030
2017-05-18T13:28:02.752Z,1060
2017-05-18T13:28:43.167Z,1095
2017-05-18T13:29:23.638Z,1125
2017-05-18T13:30:04.414Z,1125
2017-05-18T13:30:44.815Z,1090
2017-05-18T13:31:25.285Z,1035
2017-05-18T13:32:05.787Z,980
2017-05-18T13:32:46.262Z,985
2017-05-18T13:33:26.710Z,965
2017-05-18T13:34:07.109Z,930
2017-05-18T13:34:47.558Z,910
2017-05-18T13:35:27.960Z,895
2017-05-18T13:36:08.406Z,865
2017-05-18T13:38:46.510Z,755
2017-05-18T13:39:26.928Z,710
2017-05-18T13:40:07.346Z,665
2017-05-18T13:40:47.776Z,635
2017-05-18T13:41:28.437Z,600
2017-05-18T13:42:09.012Z,580
2017-05-18T13:42:49.261Z,575
2017-05-18T13:43:29.654Z,575
2017-05-18T13:44:10.221Z,590
2017-05-18T13:44:50.661Z,615
2017-05-18T13:45:32.027Z,625
2017-05-18T13:46:12.572Z,615
2017-05-18T13:46:52.952Z,595
2017-05-18T13:47:33.442Z,580
2017-05-18T13:48:13.898Z,580
2017-05-18T13:48:56.165Z,575
2017-05-18T13:49:36.599Z,580
2017-05-18T13:50:17.058Z,610
2017-05-18T13:50:57.517Z,640
2017-05-18T13:51:37.929Z,675
2017-05-18T13:52:18.595Z,695
2017-05-18T13:52:59.042Z,705
2017-05-18T13:53:39.464Z,710
2017-05-18T13:54:19.850Z,710
2017-05-18T13:55:01.102Z,700
2017-05-18T13:55:41.442Z,685
2017-05-18T13:56:22.094Z,690
2017-05-18T13:57:02.348Z,705
2017-05-18T13:57:42.780Z,725
2017-05-18T14:00:00.786Z,755
2017-05-18T14:00:41.211Z,760
2017-05-18T14:01:21.852Z,745
2017-05-18T14:02:02.308Z,705
2017-05-18T14:02:42.682Z,660
2017-05-18T14:03:23.136Z,625
2017-05-18T14:04:03.573Z,590
2017-05-18T14:04:43.998Z,565
2017-05-18T14:05:24.435Z,545
2017-05-18T14:06:04.884Z,540
2017-05-18T14:06:45.327Z,555
2017-05-18T14:07:25.814Z,590
2017-05-18T14:08:06.189Z,620
2017-05-18T14:08:46.668Z,630
2017-05-18T14:09:27.088Z,640
2017-05-18T14:10:07.502Z,645
2017-05-18T14:10:47.940Z,655
2017-05-18T14:11:28.397Z,655
2017-05-18T14:12:08.794Z,645
2017-05-18T14:12:49.307Z,620
2017-05-18T14:13:29.727Z,570
2017-05-18T14:14:10.884Z,545
2017-05-18T14:14:51.291Z,535
2017-05-18T14:15:31.718Z,525
2017-05-18T14:16:12.109Z,530
2017-05-18T14:16:52.565Z,540
2017-05-18T14:17:32.970Z,545
2017-05-18T14:18:13.359Z,560
2017-05-18T14:18:53.831Z,585
2017-05-18T14:19:34.228Z,610
2017-05-18T14:20:14.678Z,625
2017-05-18T14:20:55.258Z,610
2017-05-18T14:21:35.499Z,600
2017-05-18T14:22:15.945Z,580
2017-05-18T14:22:56.381Z,580
2017-05-18T14:23:36.743Z,585
2017-05-18T14:24:17.208Z,600
2017-05-18T14:24:57.662Z,630
2017-05-18T14:25:38.072Z,665
2017-05-18T14:27:51.026Z,690
2017-05-18T14:28:31.465Z,705
2017-05-18T14:29:11.916Z,725
2017-05-18T14:29:52.373Z,750
2017-05-18T14:30:32.772Z,750
2017-05-18T14:31:13.209Z,755
2017-05-18T14:31:53.619Z,750
2017-05-18T14:32:34.064Z,760
2017-05-18T14:33:14.495Z,765
2017-05-18T14:33:54.929Z,770
2017-05-18T14:34:35.344Z,770
2017-05-18T14:35:15.755Z,765
2017-05-18T14:35:56.175Z,755
2017-05-18T14:38:09.119Z,755
2017-05-18T14:38:49.566Z,755
2017-05-18T14:39:30.833Z,760
2017-05-18T14:40:11.240Z,775
2017-05-18T14:40:51.658Z,800
2017-05-18T14:41:32.078Z,800
2017-05-18T14:42:12.494Z,800
2017-05-18T14:42:52.981Z,810
2017-05-18T14:43:33.383Z,785
2017-05-18T14:44:13.809Z,760
2017-05-18T14:44:54.277Z,715
2017-05-18T14:45:34.674Z,665
2017-05-18T14:46:15.302Z,615
2017-05-18T14:46:55.771Z,570
2017-05-18T14:47:36.776Z,545
2017-05-18T14:48:17.283Z,530
2017-05-18T14:48:57.904Z,530
2017-05-18T14:51:31.926Z,605
2017-05-18T14:52:12.370Z,630
2017-05-18T14:52:53.001Z,645
2017-05-18T14:55:21.052Z,645
2017-05-18T14:56:01.469Z,625
2017-05-18T14:56:41.956Z,615
2017-05-18T14:57:22.366Z,605
2017-05-18T14:58:02.766Z,600
2017-05-18T14:58:43.802Z,590
2017-05-18T14:59:24.251Z,585
2017-05-18T15:00:04.646Z,595
2017-05-18T15:00:45.184Z,610
2017-05-18T15:01:25.594Z,615
2017-05-18T15:02:06.087Z,615
2017-05-18T15:02:46.505Z,595
2017-05-18T15:03:26.912Z,580
2017-05-18T15:04:07.341Z,570
2017-05-18T15:04:48.633Z,560
2017-05-18T15:07:27.842Z,590
2017-05-18T15:08:08.249Z,585
2017-05-18T15:08:49.350Z,575
2017-05-18T15:09:29.572Z,560
2017-05-18T15:14:07.071Z,495
2017-05-18T15:14:47.846Z,485
2017-05-18T15:15:29.291Z,475
2017-05-18T15:16:10.346Z,460
2017-05-18T15:16:50.800Z,455
2017-05-18T15:17:31.439Z,450
2017-05-18T15:18:12.285Z,445
2017-05-18T15:18:52.715Z,440
2017-05-18T15:19:33.790Z,430
2017-05-18T15:20:14.260Z,405
2017-05-18T15:20:54.724Z,390
2017-05-18T15:21:35.144Z,380
2017-05-18T15:22:15.562Z,355
2017-05-18T15:22:56.299Z,350
2017-05-18T15:23:37.331Z,350
2017-05-18T15:24:18.670Z,365
2017-05-18T15:26:58.708Z,435
2017-05-18T15:27:39.435Z,465
2017-05-18T15:28:20.209Z,495
2017-05-18T15:29:00.747Z,520
2017-05-18T15:29:41.467Z,540
2017-05-18T15:30:21.851Z,540
2017-05-18T15:31:02.308Z,535
2017-05-18T15:31:42.740Z,520
2017-05-18T15:32:23.167Z,515
2017-05-18T15:33:03.643Z,510
2017-05-18T15:33:44.053Z,505
2017-05-18T15:34:24.448Z,495
2017-05-18T15:35:04.913Z,485
2017-05-18T15:35:45.355Z,475
2017-05-18T15:36:25.783Z,465
2017-05-18T15:37:06.212Z,455
2017-05-18T15:37:46.720Z,440
2017-05-18T15:38:27.000Z,430
2017-05-18T15:39:07.619Z,410
2017-05-18T15:41:49.144Z,360
2017-05-18T15:42:29.552Z,355
2017-05-18T15:43:10.001Z,350
2017-05-18T15:43:50.428Z,350
2017-05-18T15:44:31.004Z,340
2017-05-18T15:45:11.392Z,330
2017-05-18T15:45:51.768Z,320
2017-05-18T15:46:32.218Z,320
2017-05-18T15:47:12.659Z,310
2017-05-18T15:47:53.088Z,300
2017-05-18T15:48:33.527Z,295
2017-05-18T15:49:13.926Z,290
2017-05-18T15:49:54.377Z,275
2017-05-18T15:50:34.853Z,265
2017-05-18T15:51:15.255Z,260
2017-05-18T15:51:55.697Z,255
2017-05-18T15:52:36.146Z,255
2017-05-18T15:53:16.554Z,250
2017-05-18T15:53:57.008Z,240
2017-05-18T15:54:37.493Z,230
2017-05-18T15:55:17.879Z,225
2017-05-18T15:55:58.272Z,225
2017-05-18T15:56:38.714Z,230
2017-05-18T15:57:19.155Z,230
2017-05-18T15:57:59.607Z,230
2017-05-18T16:00:12.668Z,245
2017-05-18T16:00:53.063Z,260
2017-05-18T16:01:33.492Z,275
2017-05-18T16:02:13.994Z,295
2017-05-18T16:02:54.411Z,310
2017-05-18T16:03:34.825Z,320
2017-05-18T16:04:15.227Z,325
2017-05-18T16:04:55.628Z,325
2017-05-18T16:05:36.058Z,315
2017-05-18T16:06:16.470Z,305
2017-05-18T16:06:56.921Z,285
2017-05-18T16:07:37.325Z,260
2017-05-18T16:10:15.643Z,185
2017-05-18T16:10:56.098Z,175
2017-05-18T16:11:36.556Z,170
2017-05-18T16:12:16.917Z,160
2017-05-18T16:12:57.346Z,155
2017-05-18T16:13:37.787Z,150
2017-05-18T16:15:55.733Z,130
2017-05-18T16:16:36.193Z,130
2017-05-18T16:17:16.624Z,135
2017-05-18T16:17:57.062Z,140
2017-05-18T16:18:37.617Z,150
2017-05-18T16:19:18.690Z,160
2017-05-18T16:21:33.036Z,210
2017-05-18T16:22:13.459Z,215
2017-05-18T16:22:53.850Z,215
2017-05-18T16:23:34.295Z,205